Aeroporto :
LOGIN :

Iscrizione | Disclaimer

   EN    FR    IT 

 










Sommario :    VFR   VFR Marginale   IFR   IFR Intensivo   IFR Molto Intensivo
Visibilità : 
Base nubi : 
>= 8 km
>= 3000ft
5 / 8 km
1000 / 3000 ft
1500m / 5 km
500 / 1000 ft
800 / 1500m
200 / 500 ft
< 800m
< 200 ft
Simboli :   Temporali  Nebbia  Neve Forte  Precipitazioni Forti  Vento > 20 kt
SIGMETs :   Varie  Temporali  Ghiacco  Turbolenza  Onda orograficha  Ceneri Vulcaniche






- Altitudine del aeroporto : 194 ft
- Codice IATA : LME


LFRM - Le Mans

ULTIMO METAR :
  • 122130Z AUTO VRB03KT 9999 FEW036 BKN044 03/03 Q1005

METARs OBSOLETI :
  • 122100Z AUTO VRB02KT 9999 FEW047 03/02 Q1005
  • 122030Z AUTO 22003KT 190V260 9999 BKN046 03/03 Q1005
  • 122000Z AUTO 19003KT CAVOK 03/03 Q1005
  • 121930Z AUTO VRB01KT 9999 FEW037 03/03 Q1005
  • 121900Z AUTO VRB01KT CAVOK 04/03 Q1005 NOSIG

TAF TAF LFRM
Valido dal 12 a 12 ore il 13 a 12 ore UTC


121100Z 1212/1312 27008KT 9999 SCT030
TEMPO 1212/1218 28015G25KT 4000 SHRA SCT026TCU
PROB30
TEMPO 1308/1312 -SHRA SCT026TCU



MetMap, La meteo Aeronautica in un colpo d'occhio ! - Copyright ORBIFLY Dicembre 2007 - Disclaimer

ORBIFLY MET'MAP TEAM :

Programmazione e sviluppo : Alexandra Zaïnal
Concezione e sviluppo : Baudouin d'Aumeries
Co-Programmazione e sviluppo : Marc-Olivier Méhu
Supporto tecnico e logistico : Manuel Goepfert
Aiuto per la traduzione : Arnaldo La Scala

Contatto : metmap@orbifly.com




FONTI E CREDITI :

   NOAA